createdAt,value
2024-05-09T00:00:35.765Z,17.08
2024-05-09T00:03:10.516Z,17.10
2024-05-09T00:05:40.099Z,17.09
2024-05-09T00:08:07.287Z,17.11
2024-05-09T00:10:37.515Z,16.99
2024-05-09T00:13:07.147Z,16.96
2024-05-09T00:15:35.066Z,16.79
2024-05-09T00:18:03.181Z,16.78
2024-05-09T00:20:37.533Z,16.89
2024-05-09T00:23:07.874Z,16.90
2024-05-09T00:25:35.560Z,16.86
2024-05-09T00:28:02.607Z,16.91
2024-05-09T00:30:34.367Z,16.93
2024-05-09T00:33:07.687Z,16.94
2024-05-09T00:35:35.959Z,16.91
2024-05-09T00:38:02.838Z,16.92
2024-05-09T00:40:38.770Z,16.93
2024-05-09T00:43:08.344Z,16.96
2024-05-09T00:45:35.767Z,16.90
2024-05-09T00:48:06.662Z,16.83
2024-05-09T00:50:37.506Z,16.81
2024-05-09T00:53:09.079Z,16.83
2024-05-09T00:55:37.545Z,16.88
2024-05-09T00:58:06.014Z,16.86
2024-05-09T01:00:38.887Z,16.87
2024-05-09T01:03:12.523Z,16.93
2024-05-09T01:05:40.948Z,16.92
2024-05-09T01:08:08.897Z,16.85
2024-05-09T01:10:36.880Z,16.87
2024-05-09T01:13:04.849Z,16.81
2024-05-09T01:15:31.642Z,16.64
2024-05-09T01:18:00.574Z,16.51
2024-05-09T01:20:36.830Z,16.63
2024-05-09T01:23:09.295Z,16.66
2024-05-09T01:25:36.223Z,16.71
2024-05-09T01:28:02.908Z,16.66
2024-05-09T01:30:34.757Z,16.60
2024-05-09T01:33:04.954Z,16.56
2024-05-09T01:35:32.526Z,16.62
2024-05-09T01:37:59.260Z,16.53
2024-05-09T01:40:36.130Z,16.47
2024-05-09T01:43:06.170Z,16.49
2024-05-09T01:45:33.005Z,16.52
2024-05-09T01:47:59.944Z,16.44
2024-05-09T01:50:36.584Z,16.49
2024-05-09T01:53:07.090Z,16.42
2024-05-09T01:55:33.740Z,16.38
2024-05-09T01:58:00.365Z,16.31
2024-05-09T02:00:37.685Z,16.40
2024-05-09T02:03:12.272Z,16.46
2024-05-09T02:05:42.865Z,16.43
2024-05-09T02:08:14.980Z,16.47
2024-05-09T02:10:42.185Z,16.50
2024-05-09T02:13:09.446Z,16.46
2024-05-09T02:15:36.239Z,16.44
2024-05-09T02:18:03.197Z,16.44
2024-05-09T02:20:35.887Z,16.52
2024-05-09T02:23:05.226Z,16.60
2024-05-09T02:25:32.420Z,16.58
2024-05-09T02:27:59.275Z,16.64
2024-05-09T02:30:35.795Z,16.62
2024-05-09T02:33:07.127Z,16.50
2024-05-09T02:35:34.125Z,16.51
2024-05-09T02:38:00.946Z,16.53
2024-05-09T02:40:35.762Z,16.53
2024-05-09T02:43:05.479Z,16.62
2024-05-09T02:45:32.448Z,16.57
2024-05-09T02:47:59.311Z,16.51
2024-05-09T02:50:34.411Z,16.56
2024-05-09T02:53:05.692Z,16.55
2024-05-09T02:55:32.739Z,16.49
2024-05-09T02:57:59.535Z,16.58
2024-05-09T03:00:35.261Z,16.56
2024-05-09T03:03:08.544Z,16.58
2024-05-09T03:05:36.628Z,16.63
2024-05-09T03:08:04.137Z,16.68
2024-05-09T03:10:35.959Z,16.68
2024-05-09T03:13:08.623Z,16.74
2024-05-09T03:15:35.606Z,16.68
2024-05-09T03:18:03.257Z,16.70
2024-05-09T03:20:34.254Z,16.66
2024-05-09T03:23:03.194Z,16.62
2024-05-09T03:25:30.062Z,16.60
2024-05-09T03:27:56.822Z,16.62
2024-05-09T03:30:35.966Z,16.57
2024-05-09T03:33:11.231Z,16.58
2024-05-09T03:35:38.588Z,16.62
2024-05-09T03:38:05.303Z,16.57
2024-05-09T03:40:31.941Z,16.67
2024-05-09T03:42:58.915Z,16.57
2024-05-09T03:45:25.715Z,16.59
2024-05-09T03:47:52.981Z,16.63
2024-05-09T03:50:26.410Z,16.40
2024-05-09T03:53:00.671Z,16.47
2024-05-09T03:55:28.085Z,16.54
2024-05-09T03:57:54.746Z,16.43
2024-05-09T04:00:30.678Z,16.44
2024-05-09T04:03:04.155Z,16.47
2024-05-09T04:05:31.554Z,16.47
2024-05-09T04:07:58.408Z,16.45
2024-05-09T04:10:32.398Z,16.55
2024-05-09T04:13:00.733Z,16.55
2024-05-09T04:15:27.481Z,16.45
2024-05-09T04:17:54.318Z,16.53
2024-05-09T04:20:32.352Z,16.38
2024-05-09T04:23:05.546Z,16.37
2024-05-09T04:25:32.411Z,16.38
2024-05-09T04:27:59.083Z,16.44
2024-05-09T04:30:34.638Z,16.51
2024-05-09T04:33:06.394Z,16.53
2024-05-09T04:35:34.097Z,16.59
2024-05-09T04:38:00.976Z,16.51
2024-05-09T04:40:33.239Z,16.50
2024-05-09T04:43:06.608Z,16.55
2024-05-09T04:45:33.619Z,16.55
2024-05-09T04:48:01.185Z,16.49
2024-05-09T04:50:35.834Z,16.50
2024-05-09T04:53:10.574Z,16.56
2024-05-09T04:55:38.379Z,16.61
2024-05-09T04:58:08.751Z,16.62
2024-05-09T05:00:37.895Z,16.45
2024-05-09T05:03:13.099Z,16.58
2024-05-09T05:05:42.321Z,16.59
2024-05-09T05:08:13.836Z,16.66
2024-05-09T05:10:41.588Z,16.65
2024-05-09T05:13:20.798Z,16.63
2024-05-09T05:15:55.385Z,16.67
2024-05-09T05:18:22.888Z,16.66
2024-05-09T05:20:50.323Z,16.74
2024-05-09T05:23:19.963Z,16.84
2024-05-09T05:25:48.417Z,16.88
2024-05-09T05:28:19.306Z,16.86
2024-05-09T05:30:46.371Z,16.93
2024-05-09T05:33:15.136Z,16.95
2024-05-09T05:35:42.479Z,16.86
2024-05-09T05:38:10.052Z,16.93
2024-05-09T05:40:38.606Z,17.00
2024-05-09T05:43:10.706Z,17.02
2024-05-09T05:45:38.478Z,16.92
2024-05-09T05:48:07.022Z,17.03
2024-05-09T05:50:36.942Z,17.11
2024-05-09T05:53:08.103Z,17.11
2024-05-09T05:55:36.224Z,17.23
2024-05-09T05:58:02.975Z,17.28
2024-05-09T06:00:37.190Z,17.32
2024-05-09T06:03:06.266Z,17.36
2024-05-09T06:05:33.507Z,17.39
2024-05-09T06:08:00.398Z,17.51
2024-05-09T06:10:37.008Z,17.54
2024-05-09T06:13:06.433Z,17.68
2024-05-09T06:15:33.114Z,17.77
2024-05-09T06:17:59.847Z,17.89
2024-05-09T06:20:34.898Z,17.97
2024-05-09T06:23:04.500Z,18.14
2024-05-09T06:25:31.511Z,18.27
2024-05-09T06:28:00.344Z,18.46
2024-05-09T06:30:36.517Z,18.61
2024-05-09T06:33:07.308Z,18.90
2024-05-09T06:35:34.459Z,19.10
2024-05-09T06:38:01.585Z,19.31
2024-05-09T06:40:36.728Z,19.48
2024-05-09T06:43:10.586Z,19.68
2024-05-09T06:45:37.314Z,19.84
2024-05-09T06:48:04.249Z,19.93
2024-05-09T06:50:37.003Z,19.99
2024-05-09T06:53:05.208Z,20.15
2024-05-09T06:55:31.923Z,20.27
2024-05-09T06:57:58.491Z,20.33
2024-05-09T07:00:30.962Z,20.34
2024-05-09T07:03:14.737Z,20.40
2024-05-09T07:05:43.942Z,20.40
2024-05-09T07:08:10.859Z,20.40
2024-05-09T07:10:38.071Z,20.42
2024-05-09T07:13:13.100Z,20.35
2024-05-09T07:15:40.960Z,20.37
2024-05-09T07:18:18.345Z,20.30
2024-05-09T07:20:47.164Z,20.27
2024-05-09T07:23:14.326Z,20.27
2024-05-09T07:25:41.813Z,20.24
2024-05-09T07:28:22.032Z,20.27
2024-05-09T07:30:48.725Z,20.32
2024-05-09T07:33:16.084Z,20.38
2024-05-09T07:35:43.005Z,20.41
2024-05-09T07:38:09.860Z,20.44
2024-05-09T07:40:37.167Z,20.48
2024-05-09T07:43:16.417Z,20.57
2024-05-09T07:45:51.286Z,20.64
2024-05-09T07:53:38.945Z,20.92
2024-05-09T07:56:09.420Z,21.11
2024-05-09T07:58:36.995Z,21.24
2024-05-09T08:01:04.151Z,21.33
2024-05-09T08:03:31.513Z,21.48
2024-05-09T08:05:58.210Z,21.54
2024-05-09T08:08:24.765Z,21.64
2024-05-09T08:10:51.452Z,21.70
2024-05-09T08:13:18.269Z,21.78
2024-05-09T08:15:45.124Z,21.89
2024-05-09T08:18:12.135Z,21.93
2024-05-09T08:20:39.830Z,21.96
2024-05-09T08:23:06.963Z,22.06
2024-05-09T08:25:33.624Z,22.17
2024-05-09T08:28:00.188Z,22.24
2024-05-09T08:30:33.488Z,22.27
2024-05-09T08:33:04.988Z,22.35
2024-05-09T08:35:32.829Z,22.46
2024-05-09T08:37:59.805Z,22.49
2024-05-09T08:40:33.934Z,22.55
2024-05-09T08:43:06.944Z,22.64
2024-05-09T08:45:35.688Z,22.74
2024-05-09T08:48:07.645Z,22.78
2024-05-09T08:50:39.157Z,22.83
2024-05-09T09:00:43.795Z,23.20
2024-05-09T09:03:15.534Z,23.36
2024-05-09T09:05:50.596Z,23.46
2024-05-09T09:08:17.791Z,23.58
2024-05-09T09:10:46.531Z,23.69
2024-05-09T09:13:13.253Z,23.78
2024-05-09T09:15:50.357Z,23.77
2024-05-09T09:18:18.262Z,23.79
2024-05-09T09:20:45.280Z,23.85
2024-05-09T09:23:11.993Z,23.91
2024-05-09T09:25:42.399Z,23.83
2024-05-09T09:28:09.835Z,23.92
2024-05-09T09:30:43.872Z,23.96
2024-05-09T09:33:11.266Z,24.05
2024-05-09T09:35:40.285Z,24.11
2024-05-09T09:38:07.975Z,24.19
2024-05-09T09:40:40.400Z,24.24
2024-05-09T09:43:17.157Z,24.25
2024-05-09T09:45:45.114Z,24.20
2024-05-09T09:48:13.891Z,24.26
2024-05-09T09:50:42.018Z,24.26
2024-05-09T09:53:10.346Z,24.30
2024-05-09T09:55:38.530Z,24.34
2024-05-09T09:58:08.750Z,24.35
2024-05-09T10:00:37.684Z,24.40
2024-05-09T10:03:04.684Z,24.40
2024-05-09T10:05:33.976Z,24.29
2024-05-09T10:08:05.922Z,24.31
2024-05-09T10:10:36.269Z,24.30
2024-05-09T10:13:07.662Z,24.20
2024-05-09T10:15:48.165Z,24.15
2024-05-09T10:18:15.466Z,24.25
2024-05-09T10:20:42.905Z,24.26
2024-05-09T10:23:26.637Z,24.27
2024-05-09T10:25:59.037Z,24.30
2024-05-09T10:28:29.706Z,24.32
2024-05-09T10:31:10.533Z,24.32
2024-05-09T10:33:38.416Z,24.27
2024-05-09T10:36:18.553Z,24.21
2024-05-09T10:38:45.220Z,24.24
2024-05-09T10:41:12.071Z,24.33
2024-05-09T10:43:40.341Z,24.39
2024-05-09T10:46:08.296Z,24.43
2024-05-09T10:48:36.822Z,24.52
2024-05-09T10:51:04.372Z,24.49
2024-05-09T10:53:31.649Z,24.46
2024-05-09T10:55:59.314Z,24.42
2024-05-09T10:58:28.078Z,24.43
2024-05-09T11:00:55.897Z,24.44
2024-05-09T11:03:26.160Z,24.31
2024-05-09T11:05:53.657Z,24.35
2024-05-09T11:08:23.731Z,24.25
2024-05-09T11:10:52.616Z,24.17
2024-05-09T11:13:35.928Z,24.11
2024-05-09T11:16:03.681Z,24.17
2024-05-09T11:18:35.473Z,24.22
2024-05-09T11:21:13.329Z,24.26
2024-05-09T11:23:40.608Z,24.31
2024-05-09T11:26:07.675Z,24.34
2024-05-09T11:28:34.266Z,24.40
2024-05-09T11:31:09.632Z,24.44
2024-05-09T11:33:41.421Z,24.45
2024-05-09T11:36:09.341Z,24.52
2024-05-09T11:38:36.117Z,24.58
2024-05-09T11:41:03.818Z,24.56
2024-05-09T11:43:30.731Z,24.53
2024-05-09T11:45:58.202Z,24.60
2024-05-09T11:48:26.536Z,24.61
2024-05-09T11:50:54.862Z,24.68
2024-05-09T11:53:21.551Z,24.58
2024-05-09T11:55:48.319Z,24.58
2024-05-09T11:58:17.754Z,24.54
2024-05-09T12:00:45.572Z,24.59
2024-05-09T12:03:12.656Z,24.66
2024-05-09T12:05:39.540Z,24.68
2024-05-09T12:08:06.923Z,24.73
2024-05-09T12:10:35.797Z,24.61
2024-05-09T12:13:05.705Z,24.55
2024-05-09T12:15:36.593Z,24.61
2024-05-09T12:18:04.785Z,24.62
2024-05-09T12:20:37.495Z,24.65
2024-05-09T12:23:07.188Z,24.62
2024-05-09T12:25:34.332Z,24.68
2024-05-09T12:28:01.280Z,24.70
2024-05-09T12:30:36.087Z,24.69
2024-05-09T12:33:08.169Z,24.69
2024-05-09T12:35:35.124Z,24.67
2024-05-09T12:38:01.820Z,24.63
2024-05-09T12:40:35.655Z,24.65
2024-05-09T12:43:06.491Z,24.64
2024-05-09T12:45:33.613Z,24.58
2024-05-09T12:48:00.708Z,24.64
2024-05-09T12:50:32.556Z,24.71
2024-05-09T12:53:01.916Z,24.72
2024-05-09T12:55:33.904Z,24.73
2024-05-09T12:58:08.115Z,24.57
2024-05-09T13:00:35.209Z,24.63
2024-05-09T13:03:02.061Z,24.65
2024-05-09T13:05:29.526Z,24.64
2024-05-09T13:07:57.134Z,24.62
2024-05-09T13:10:31.063Z,24.61
2024-05-09T13:13:00.265Z,24.63
2024-05-09T13:15:27.397Z,24.70
2024-05-09T13:17:56.406Z,24.68
2024-05-09T13:20:31.622Z,24.65
2024-05-09T13:23:02.356Z,24.69
2024-05-09T13:25:30.037Z,24.68
2024-05-09T13:27:57.390Z,24.65
2024-05-09T13:30:33.973Z,24.67
2024-05-09T13:33:06.902Z,24.69
2024-05-09T13:35:35.504Z,24.67
2024-05-09T13:38:03.126Z,24.66
2024-05-09T13:40:34.241Z,24.66
2024-05-09T13:43:06.256Z,24.67
2024-05-09T13:45:33.860Z,24.70
2024-05-09T13:48:02.355Z,24.67
2024-05-09T13:50:35.900Z,24.64
2024-05-09T13:53:08.663Z,24.58
2024-05-09T13:55:39.714Z,24.60
2024-05-09T13:58:07.572Z,24.57
2024-05-09T14:00:44.311Z,24.58
2024-05-09T14:03:17.026Z,24.60
2024-05-09T14:05:45.575Z,24.62
2024-05-09T14:08:15.592Z,24.66
2024-05-09T14:10:44.705Z,24.58
2024-05-09T14:13:12.522Z,24.61
2024-05-09T14:15:39.589Z,24.66
2024-05-09T14:18:10.383Z,24.68
2024-05-09T14:20:39.403Z,24.65
2024-05-09T14:23:05.999Z,24.66
2024-05-09T14:25:36.620Z,24.66
2024-05-09T14:28:05.957Z,24.63
2024-05-09T14:30:37.218Z,24.50
2024-05-09T14:33:06.519Z,24.51
2024-05-09T14:35:34.051Z,24.50
2024-05-09T14:38:00.742Z,24.53
2024-05-09T14:40:37.203Z,24.54
2024-05-09T14:43:10.254Z,24.58
2024-05-09T14:45:37.183Z,24.48
2024-05-09T14:48:04.397Z,24.44
2024-05-09T14:50:36.617Z,24.48
2024-05-09T14:53:10.025Z,24.49
2024-05-09T14:55:39.264Z,24.48
2024-05-09T14:58:07.558Z,24.48
2024-05-09T15:00:42.474Z,24.48
2024-05-09T15:03:12.703Z,24.48
2024-05-09T15:05:40.457Z,24.49
2024-05-09T15:08:08.061Z,24.52
2024-05-09T15:10:36.636Z,24.46
2024-05-09T15:13:04.878Z,24.48
2024-05-09T15:15:31.840Z,24.43
2024-05-09T15:17:59.620Z,24.39
2024-05-09T15:20:34.327Z,24.39
2024-05-09T15:23:04.431Z,24.36
2024-05-09T15:25:31.201Z,24.39
2024-05-09T15:27:58.052Z,24.42
2024-05-09T15:30:30.900Z,24.43
2024-05-09T15:33:00.971Z,24.47
2024-05-09T15:35:28.079Z,24.49
2024-05-09T15:37:55.364Z,24.47
2024-05-09T15:40:31.102Z,24.45
2024-05-09T15:43:05.364Z,24.39
2024-05-09T15:45:32.512Z,24.35
2024-05-09T15:47:59.777Z,24.36
2024-05-09T15:50:36.266Z,24.35
2024-05-09T15:53:07.728Z,24.41
2024-05-09T15:55:35.533Z,24.37
2024-05-09T15:58:03.929Z,24.39
2024-05-09T16:00:38.714Z,24.38
2024-05-09T16:03:13.759Z,24.36
2024-05-09T16:05:42.988Z,24.38
2024-05-09T16:08:11.653Z,24.31
2024-05-09T16:10:44.563Z,24.25
2024-05-09T16:13:12.569Z,24.24
2024-05-09T16:15:39.445Z,24.19
2024-05-09T16:18:06.835Z,24.15
2024-05-09T16:20:39.211Z,24.11
2024-05-09T16:23:08.928Z,24.13
2024-05-09T16:25:36.263Z,24.12
2024-05-09T16:28:10.509Z,24.12
2024-05-09T16:30:40.947Z,24.12
2024-05-09T16:33:08.672Z,24.11
2024-05-09T16:35:36.502Z,24.11
2024-05-09T16:38:03.973Z,24.13
2024-05-09T16:40:37.802Z,24.12
2024-05-09T16:43:08.311Z,24.11
2024-05-09T16:45:35.812Z,24.11
2024-05-09T16:48:03.053Z,24.13
2024-05-09T16:50:33.941Z,24.09
2024-05-09T16:53:03.239Z,24.09
2024-05-09T16:55:30.235Z,24.05
2024-05-09T16:57:58.070Z,24.01
2024-05-09T17:00:35.498Z,23.98
2024-05-09T17:03:09.468Z,23.97
2024-05-09T17:05:36.948Z,23.98
2024-05-09T17:08:04.225Z,23.95
2024-05-09T17:10:33.802Z,23.92
2024-05-09T17:13:03.199Z,23.85
2024-05-09T17:15:31.065Z,23.82
2024-05-09T17:17:58.184Z,23.82
2024-05-09T17:20:31.888Z,23.79
2024-05-09T17:23:02.713Z,23.63
2024-05-09T17:25:29.630Z,23.60
2024-05-09T17:27:57.055Z,23.49
2024-05-09T17:30:32.117Z,23.32
2024-05-09T17:33:04.156Z,23.32
2024-05-09T17:35:32.061Z,23.20
2024-05-09T17:37:59.852Z,23.05
2024-05-09T17:40:32.705Z,22.98
2024-05-09T17:43:02.819Z,22.95
2024-05-09T17:45:29.676Z,22.83
2024-05-09T17:47:56.411Z,22.72
2024-05-09T17:50:30.322Z,22.58
2024-05-09T17:53:01.524Z,22.44
2024-05-09T17:55:28.762Z,22.38
2024-05-09T17:57:55.715Z,22.30
2024-05-09T18:00:32.919Z,22.15
2024-05-09T18:03:05.484Z,21.94
2024-05-09T18:05:32.838Z,21.72
2024-05-09T18:07:59.654Z,21.51
2024-05-09T18:10:33.248Z,21.34
2024-05-09T18:13:05.485Z,21.15
2024-05-09T18:15:32.819Z,20.93
2024-05-09T18:18:00.140Z,20.75
2024-05-09T18:20:37.015Z,20.56
2024-05-09T18:23:09.859Z,20.31
2024-05-09T18:25:36.634Z,20.14
2024-05-09T18:28:03.487Z,20.10
2024-05-09T18:30:34.924Z,19.84
2024-05-09T18:33:04.981Z,19.76
2024-05-09T18:35:33.323Z,19.55
2024-05-09T18:38:00.247Z,19.43
2024-05-09T18:40:33.706Z,19.33
2024-05-09T18:43:04.699Z,19.17
2024-05-09T18:45:32.543Z,19.02
2024-05-09T18:47:59.684Z,18.84
2024-05-09T18:50:34.850Z,18.72
2024-05-09T18:53:12.634Z,18.62
2024-05-09T18:55:41.203Z,18.53
2024-05-09T18:58:07.997Z,18.41
2024-05-09T19:00:38.429Z,18.30
2024-05-09T19:03:12.898Z,18.12
2024-05-09T19:05:45.479Z,18.00
2024-05-09T19:08:13.155Z,17.86
2024-05-09T19:10:40.210Z,17.72
2024-05-09T19:13:11.882Z,17.63
2024-05-09T19:15:41.070Z,17.53
2024-05-09T19:18:09.775Z,17.42
2024-05-09T19:20:37.417Z,17.40
2024-05-09T19:23:06.424Z,17.30
2024-05-09T19:25:34.586Z,17.24
2024-05-09T19:28:01.649Z,17.22
2024-05-09T19:30:37.081Z,17.10
2024-05-09T19:33:08.100Z,17.02
2024-05-09T19:35:35.021Z,16.91
2024-05-09T19:38:02.253Z,16.83
2024-05-09T19:40:32.184Z,16.78
2024-05-09T19:43:02.181Z,16.74
2024-05-09T19:45:29.570Z,16.65
2024-05-09T19:47:57.029Z,16.58
2024-05-09T19:50:32.244Z,16.52
2024-05-09T19:53:06.803Z,16.50
2024-05-09T19:55:33.835Z,16.50
2024-05-09T19:58:04.482Z,16.48
2024-05-09T20:00:36.663Z,16.37
2024-05-09T20:03:05.811Z,16.33
2024-05-09T20:05:33.345Z,16.28
2024-05-09T20:08:00.221Z,16.24
2024-05-09T20:10:31.971Z,16.20
2024-05-09T20:13:00.885Z,16.24
2024-05-09T20:15:27.623Z,16.22
2024-05-09T20:17:54.957Z,16.15
2024-05-09T20:22:51.886Z,16.11
2024-05-09T20:25:18.654Z,16.00
2024-05-09T20:27:45.378Z,15.97
2024-05-09T20:30:17.297Z,15.94
2024-05-09T20:32:51.637Z,15.86
2024-05-09T20:35:18.287Z,15.78
2024-05-09T20:37:44.902Z,15.75
2024-05-09T20:40:18.289Z,15.71
2024-05-09T20:42:51.653Z,15.55
2024-05-09T20:45:18.284Z,15.47
2024-05-09T20:47:45.032Z,15.44
2024-05-09T20:50:20.569Z,15.41
2024-05-09T20:52:55.275Z,15.43
2024-05-09T20:55:22.005Z,15.39
2024-05-09T20:57:48.683Z,15.39
2024-05-09T21:00:19.065Z,15.43
2024-05-09T21:02:49.428Z,15.34
2024-05-09T21:05:16.247Z,15.39
2024-05-09T21:07:42.864Z,15.36
2024-05-09T21:10:15.619Z,15.34
2024-05-09T21:12:46.279Z,15.19
2024-05-09T21:15:12.921Z,15.15
2024-05-09T21:17:39.687Z,15.12
2024-05-09T21:20:11.659Z,15.10
2024-05-09T21:22:44.420Z,15.08
2024-05-09T21:25:11.209Z,15.07
2024-05-09T21:27:38.054Z,15.07
2024-05-09T21:30:07.760Z,14.93
2024-05-09T21:32:36.705Z,14.82
2024-05-09T21:35:03.471Z,14.75
2024-05-09T21:37:30.080Z,14.65
2024-05-09T21:39:56.924Z,14.63
2024-05-09T21:42:23.699Z,14.50
2024-05-09T21:44:50.303Z,14.52
2024-05-09T21:47:16.979Z,14.44
2024-05-09T21:49:43.786Z,14.47
2024-05-09T21:52:10.570Z,14.58
2024-05-09T21:54:37.393Z,14.49
2024-05-09T21:57:06.542Z,14.47
2024-05-09T21:59:33.378Z,14.58
2024-05-09T22:02:00.359Z,14.55
2024-05-09T22:04:27.102Z,14.56
2024-05-09T22:06:53.766Z,14.53
2024-05-09T22:09:20.465Z,14.50
2024-05-09T22:11:48.158Z,14.41
2024-05-09T22:14:16.172Z,14.32
2024-05-09T22:16:42.859Z,14.26
2024-05-09T22:19:09.615Z,14.19
2024-05-09T22:21:36.307Z,14.19
2024-05-09T22:24:03.003Z,14.17
2024-05-09T22:26:29.675Z,14.14
2024-05-09T22:28:56.279Z,14.07
2024-05-09T22:31:23.005Z,13.94
2024-05-09T22:33:49.994Z,13.93
2024-05-09T22:36:16.920Z,14.02
2024-05-09T22:38:43.572Z,13.99
2024-05-09T22:41:10.252Z,13.96
2024-05-09T22:43:36.900Z,13.87
2024-05-09T22:46:03.841Z,13.86
2024-05-09T22:48:30.708Z,13.83
2024-05-09T22:50:57.550Z,13.82
2024-05-09T22:53:25.153Z,13.72
2024-05-09T22:55:52.310Z,13.75
2024-05-09T22:58:19.407Z,13.72
2024-05-09T23:00:46.403Z,13.65
2024-05-09T23:03:16.389Z,13.60
2024-05-09T23:05:43.107Z,13.57
2024-05-09T23:08:10.405Z,13.51
2024-05-09T23:10:38.147Z,13.46
2024-05-09T23:13:08.427Z,13.45
2024-05-09T23:15:36.789Z,13.45
2024-05-09T23:18:04.065Z,13.34
2024-05-09T23:20:37.046Z,13.43
2024-05-09T23:23:10.575Z,13.37
2024-05-09T23:25:38.436Z,13.38
2024-05-09T23:28:05.591Z,13.40
2024-05-09T23:30:37.945Z,13.42
2024-05-09T23:33:07.555Z,13.39
2024-05-09T23:35:34.548Z,13.36
2024-05-09T23:38:01.205Z,13.35
2024-05-09T23:40:37.475Z,13.34
2024-05-09T23:43:07.688Z,13.33
2024-05-09T23:45:34.933Z,13.44
2024-05-09T23:48:02.036Z,13.42
2024-05-09T23:50:35.897Z,13.34
2024-05-09T23:53:06.180Z,13.25
2024-05-09T23:55:33.705Z,13.11
2024-05-09T23:58:00.761Z,13.14
